Time;durP1;ratioP1;P1;durP2;ratioP2;P2;SDS_P1;SDS_P2;PMS_P1;PMS_P2;Temp;Humidity;BMP_temperature;BMP_pressure;BME280_temperature;BME280_humidity;BME280_pressure;Samples;Min_cycle;Max_cycle;Signal;HPM_P1;HPM_P2
2023/12/09 00:02:19;;;;;;;7.40;6.63;;;;;;;;;;5072851;28;20449;-56
2023/12/09 00:04:45;;;;;;;8.63;7.80;;;;;;;;;;5072375;28;20485;-56
2023/12/09 00:07:11;;;;;;;9.47;7.57;;;;;;;;;;5072628;28;20441;-55
2023/12/09 00:09:38;;;;;;;10.90;8.07;;;;;;;;;;5072135;28;21032;-56
2023/12/09 00:12:05;;;;;;;8.43;7.20;;;;;;;;;;5072870;28;20537;-55
2023/12/09 00:14:32;;;;;;;8.40;7.03;;;;;;;;;;5072221;28;20843;-56
2023/12/09 00:16:59;;;;;;;8.63;7.50;;;;;;;;;;5072688;28;20438;-56
2023/12/09 00:19:25;;;;;;;8.00;6.27;;;;;;;;;;5071659;28;20444;-56
2023/12/09 00:21:52;;;;;;;9.83;7.77;;;;;;;;;;5072262;28;20442;-56
2023/12/09 00:24:18;;;;;;;7.77;6.97;;;;;;;;;;5071919;28;20462;-56
2023/12/09 00:26:44;;;;;;;8.80;7.70;;;;;;;;;;5072356;28;21011;-56
2023/12/09 00:29:11;;;;;;;7.20;6.50;;;;;;;;;;5073463;28;20439;-56
2023/12/09 00:31:38;;;;;;;8.03;7.23;;;;;;;;;;5076244;28;20447;-55
2023/12/09 00:34:05;;;;;;;7.70;7.00;;;;;;;;;;5076042;28;20454;-56
2023/12/09 00:36:32;;;;;;;7.53;6.73;;;;;;;;;;5075814;28;20450;-56
2023/12/09 00:38:58;;;;;;;8.00;7.10;;;;;;;;;;5076051;28;20442;-55
2023/12/09 00:41:24;;;;;;;7.03;6.43;;;;;;;;;;5075547;28;20474;-55
2023/12/09 00:43:51;;;;;;;8.20;7.10;;;;;;;;;;5075862;28;20442;-55
2023/12/09 00:46:17;;;;;;;7.13;6.30;;;;;;;;;;5075157;28;20485;-55
2023/12/09 00:48:45;;;;;;;7.03;6.43;;;;;;;;;;5075674;28;20431;-55
2023/12/09 00:51:11;;;;;;;7.70;6.87;;;;;;;;;;5075674;28;20471;-56
2023/12/09 00:53:38;;;;;;;8.07;6.63;;;;;;;;;;5075739;28;20435;-56
2023/12/09 00:56:04;;;;;;;9.60;6.57;;;;;;;;;;5075474;28;20467;-55
2023/12/09 00:58:31;;;;;;;9.00;7.07;;;;;;;;;;5075842;28;20434;-56
2023/12/09 01:00:57;;;;;;;8.53;7.27;;;;;;;;;;5075479;28;20475;-55
2023/12/09 01:03:24;;;;;;;7.17;6.40;;;;;;;;;;5075344;28;20435;-55
2023/12/09 01:05:51;;;;;;;9.10;7.70;;;;;;;;;;5075133;28;21004;-55
2023/12/09 01:08:18;;;;;;;9.07;6.80;;;;;;;;;;5075551;28;20441;-56
2023/12/09 01:10:44;;;;;;;7.73;6.93;;;;;;;;;;5074971;28;20483;-56
2023/12/09 01:13:10;;;;;;;7.07;6.37;;;;;;;;;;5075482;28;20439;-56
2023/12/09 01:15:37;;;;;;;6.23;5.63;;;;;;;;;;5074647;28;20467;-56
2023/12/09 01:18:03;;;;;;;8.10;7.27;;;;;;;;;;5075376;28;20447;-55
2023/12/09 01:20:29;;;;;;;7.53;6.70;;;;;;;;;;5074712;28;20554;-56
2023/12/09 01:22:57;;;;;;;7.73;6.70;;;;;;;;;;5074960;28;20439;-56
2023/12/09 01:25:23;;;;;;;6.73;6.13;;;;;;;;;;5074566;28;20501;-56
2023/12/09 01:27:52;;;;;;;7.70;6.47;;;;;;;;;;5075172;28;20493;-56
2023/12/09 01:30:18;;;;;;;7.50;6.27;;;;;;;;;;5074672;28;20807;-56
2023/12/09 01:32:45;;;;;;;7.80;6.10;;;;;;;;;;5075048;28;20435;-56
2023/12/09 01:35:11;;;;;;;7.60;6.33;;;;;;;;;;5074272;28;20483;-56
2023/12/09 01:37:37;;;;;;;8.37;6.57;;;;;;;;;;5074606;28;20811;-56
2023/12/09 01:40:06;;;;;;;6.87;6.17;;;;;;;;;;5074459;28;20554;-59
2023/12/09 01:42:32;;;;;;;6.80;6.20;;;;;;;;;;5074855;28;20435;-56
2023/12/09 01:44:58;;;;;;;6.63;5.90;;;;;;;;;;5074133;28;20486;-56
2023/12/09 01:47:24;;;;;;;8.00;7.03;;;;;;;;;;5074795;28;20431;-56
2023/12/09 01:49:50;;;;;;;5.87;5.37;;;;;;;;;;5074445;28;20574;-56
2023/12/09 01:52:17;;;;;;;6.80;6.10;;;;;;;;;;5074400;28;20553;-56
2023/12/09 01:54:43;;;;;;;6.73;6.13;;;;;;;;;;5074058;28;20989;-56
2023/12/09 01:57:11;;;;;;;6.20;5.60;;;;;;;;;;5074578;28;20439;-56
2023/12/09 01:59:37;;;;;;;7.40;6.73;;;;;;;;;;5074065;28;20470;-56
2023/12/09 02:02:04;;;;;;;6.73;6.07;;;;;;;;;;5074520;28;20467;-56
2023/12/09 02:04:30;;;;;;;7.10;6.40;;;;;;;;;;5073922;28;20466;-56
2023/12/09 02:06:57;;;;;;;7.40;6.50;;;;;;;;;;5074342;28;20483;-56
2023/12/09 02:09:23;;;;;;;6.73;6.10;;;;;;;;;;5073980;28;20435;-56
2023/12/09 02:11:53;;;;;;;6.40;5.80;;;;;;;;;;5074262;28;20918;-56
2023/12/09 02:14:22;;;;;;;6.00;5.23;;;;;;;;;;5073671;28;20470;-55
2023/12/09 02:16:53;;;;;;;5.87;5.13;;;;;;;;;;5074156;28;20439;-56
2023/12/09 02:19:19;;;;;;;6.97;6.27;;;;;;;;;;5073718;28;20425;-55
2023/12/09 02:21:58;;;;;;;7.00;5.70;;;;;;;;;;5073673;28;20948;-55
2023/12/09 02:24:26;;;;;;;6.67;5.90;;;;;;;;;;5073679;28;20463;-56
2023/12/09 02:26:53;;;;;;;5.43;4.93;;;;;;;;;;5073887;28;20478;-56
2023/12/09 02:29:20;;;;;;;6.50;5.80;;;;;;;;;;5073512;28;20431;-56
2023/12/09 02:31:50;;;;;;;6.43;5.70;;;;;;;;;;5073886;28;20538;-56
2023/12/09 02:34:16;;;;;;;5.77;5.27;;;;;;;;;;5073359;28;20481;-56
2023/12/09 02:36:43;;;;;;;7.60;5.53;;;;;;;;;;5073580;28;20837;-56
2023/12/09 02:39:11;;;;;;;6.60;5.97;;;;;;;;;;5073379;28;20443;-56
2023/12/09 02:41:39;;;;;;;6.73;6.00;;;;;;;;;;5073389;28;20447;-55
2023/12/09 02:44:06;;;;;;;6.07;5.33;;;;;;;;;;5073589;28;20485;-56
2023/12/09 02:46:32;;;;;;;5.63;5.13;;;;;;;;;;5073267;28;20479;-56
2023/12/09 02:48:59;;;;;;;5.57;5.00;;;;;;;;;;5073356;28;20531;-56
2023/12/09 02:51:26;;;;;;;6.07;5.50;;;;;;;;;;5072498;28;20558;-56
2023/12/09 02:53:54;;;;;;;6.57;5.63;;;;;;;;;;5073562;28;20810;-56
2023/12/09 02:56:20;;;;;;;6.30;5.50;;;;;;;;;;5073425;28;20490;-56
2023/12/09 02:58:48;;;;;;;8.97;5.50;;;;;;;;;;5073555;28;20442;-56
2023/12/09 03:01:14;;;;;;;5.97;5.37;;;;;;;;;;5073404;28;20473;-56
2023/12/09 03:03:41;;;;;;;6.20;5.60;;;;;;;;;;5073378;28;20524;-56
2023/12/09 03:06:07;;;;;;;6.53;5.20;;;;;;;;;;5072759;28;20506;-56
2023/12/09 03:08:33;;;;;;;5.97;4.70;;;;;;;;;;5073452;28;20438;-56
2023/12/09 03:11:00;;;;;;;6.43;5.80;;;;;;;;;;5072989;28;20471;-56
2023/12/09 03:13:26;;;;;;;6.73;6.03;;;;;;;;;;5073043;28;20451;-56
2023/12/09 03:15:54;;;;;;;5.13;4.60;;;;;;;;;;5072676;28;20471;-56
2023/12/09 03:18:20;;;;;;;7.57;6.07;;;;;;;;;;5073005;28;20525;-56
2023/12/09 03:20:47;;;;;;;7.73;5.10;;;;;;;;;;5072840;28;20483;-56
2023/12/09 03:23:13;;;;;;;5.43;4.90;;;;;;;;;;5073007;28;20867;-56
2023/12/09 03:25:39;;;;;;;6.83;5.40;;;;;;;;;;5072857;28;20558;-56
2023/12/09 03:28:06;;;;;;;6.80;5.13;;;;;;;;;;5073230;28;20445;-56
2023/12/09 03:30:32;;;;;;;5.53;5.00;;;;;;;;;;5072580;28;20481;-56
2023/12/09 03:33:00;;;;;;;6.20;5.40;;;;;;;;;;5072878;28;20819;-56
2023/12/09 03:35:26;;;;;;;5.47;4.93;;;;;;;;;;5072537;28;20486;-56
2023/12/09 03:37:53;;;;;;;5.83;5.07;;;;;;;;;;5073191;28;20457;-56
2023/12/09 03:40:19;;;;;;;6.07;5.43;;;;;;;;;;5072524;28;20481;-56
2023/12/09 03:42:45;;;;;;;5.07;4.63;;;;;;;;;;5073101;28;20441;-56
2023/12/09 03:45:12;;;;;;;5.53;5.00;;;;;;;;;;5072637;28;20475;-56
2023/12/09 03:47:38;;;;;;;6.00;5.37;;;;;;;;;;5072951;28;20489;-56
2023/12/09 03:50:06;;;;;;;4.97;4.37;;;;;;;;;;5072346;28;20501;-56
2023/12/09 03:52:33;;;;;;;5.40;4.80;;;;;;;;;;5072970;28;20442;-56
2023/12/09 03:54:59;;;;;;;6.67;5.23;;;;;;;;;;5072407;28;20478;-56
2023/12/09 03:57:26;;;;;;;6.93;5.40;;;;;;;;;;5072540;28;20442;-56
2023/12/09 03:59:52;;;;;;;5.03;4.53;;;;;;;;;;5072412;28;20471;-56
2023/12/09 04:02:19;;;;;;;5.30;4.80;;;;;;;;;;5073663;28;20443;-56
2023/12/09 04:04:45;;;;;;;5.00;4.50;;;;;;;;;;5074691;28;20676;-56
2023/12/09 04:07:13;;;;;;;6.13;5.33;;;;;;;;;;5076651;28;20488;-56
2023/12/09 04:09:39;;;;;;;6.63;4.63;;;;;;;;;;5076140;28;20830;-56
2023/12/09 04:12:06;;;;;;;5.37;4.87;;;;;;;;;;5076610;28;20443;-56
2023/12/09 04:14:32;;;;;;;6.03;5.43;;;;;;;;;;5076090;28;20566;-56
2023/12/09 04:16:58;;;;;;;6.20;4.70;;;;;;;;;;5076503;28;20434;-56
2023/12/09 04:19:25;;;;;;;4.73;4.33;;;;;;;;;;5076090;28;20446;-56
2023/12/09 04:21:51;;;;;;;5.97;5.30;;;;;;;;;;5076117;28;20456;-56
2023/12/09 04:24:19;;;;;;;5.10;4.70;;;;;;;;;;5075579;28;20465;-56
2023/12/09 04:26:46;;;;;;;5.73;4.97;;;;;;;;;;5076264;28;20482;-56
2023/12/09 04:29:12;;;;;;;5.87;4.93;;;;;;;;;;5075874;28;20435;-56
2023/12/09 04:31:39;;;;;;;4.80;4.40;;;;;;;;;;5075951;28;20450;-56
2023/12/09 04:34:05;;;;;;;6.90;4.93;;;;;;;;;;5075874;28;20466;-56
2023/12/09 04:36:32;;;;;;;6.30;5.50;;;;;;;;;;5096181;28;20449;-56
2023/12/09 04:38:58;;;;;;;5.40;4.90;;;;;;;;;;5096433;28;20434;-56
2023/12/09 04:41:27;;;;;;;5.73;4.70;;;;;;;;;;5095832;28;20474;-56
2023/12/09 04:43:53;;;;;;;6.17;5.57;;;;;;;;;;5096154;28;20446;-55
2023/12/09 04:46:19;;;;;;;5.40;4.90;;;;;;;;;;5095878;28;20477;-56
2023/12/09 04:48:46;;;;;;;6.00;4.83;;;;;;;;;;5095953;28;20955;-56
2023/12/09 04:51:12;;;;;;;5.20;4.70;;;;;;;;;;5095968;28;20470;-56
2023/12/09 04:53:38;;;;;;;7.40;5.20;;;;;;;;;;5096078;28;20444;-56
2023/12/09 04:56:06;;;;;;;5.20;4.70;;;;;;;;;;5095862;28;20477;-56
2023/12/09 04:58:34;;;;;;;5.33;4.70;;;;;;;;;;5095741;28;20474;-56
2023/12/09 05:01:01;;;;;;;5.67;4.53;;;;;;;;;;5095316;28;20477;-56
2023/12/09 05:03:28;;;;;;;6.30;4.97;;;;;;;;;;5096015;28;20445;-56
2023/12/09 05:05:54;;;;;;;5.70;5.10;;;;;;;;;;5095191;28;20478;-56
2023/12/09 05:08:20;;;;;;;5.37;4.87;;;;;;;;;;5095726;28;20477;-56
2023/12/09 05:10:47;;;;;;;6.83;5.17;;;;;;;;;;5095138;28;20465;-56
2023/12/09 05:13:13;;;;;;;5.70;5.03;;;;;;;;;;5095678;28;20438;-56
2023/12/09 05:15:41;;;;;;;7.00;5.30;;;;;;;;;;5094570;28;20476;-56
2023/12/09 05:18:07;;;;;;;5.43;4.93;;;;;;;;;;5095699;28;20434;-56
2023/12/09 05:20:34;;;;;;;4.97;4.33;;;;;;;;;;5094897;28;20470;-56
2023/12/09 05:23:00;;;;;;;5.87;5.17;;;;;;;;;;5095578;28;20429;-56
2023/12/09 05:25:26;;;;;;;7.13;5.37;;;;;;;;;;5094738;28;20473;-56
2023/12/09 05:27:53;;;;;;;6.20;5.03;;;;;;;;;;5095072;28;20999;-56
2023/12/09 05:30:20;;;;;;;6.03;4.77;;;;;;;;;;5095014;28;20470;-56
2023/12/09 05:32:47;;;;;;;4.63;4.20;;;;;;;;;;5095441;28;20874;-56
2023/12/09 05:35:14;;;;;;;4.60;4.10;;;;;;;;;;5094913;28;20569;-56
2023/12/09 05:37:40;;;;;;;5.53;4.47;;;;;;;;;;5095269;28;20434;-56
2023/12/09 05:40:07;;;;;;;5.13;4.73;;;;;;;;;;5094849;28;20466;-56
2023/12/09 05:42:34;;;;;;;5.20;4.70;;;;;;;;;;5095067;28;20446;-56
2023/12/09 05:45:00;;;;;;;5.87;5.10;;;;;;;;;;5094678;28;20474;-56
2023/12/09 05:47:27;;;;;;;4.57;4.17;;;;;;;;;;5095090;28;20482;-56
2023/12/09 05:49:54;;;;;;;5.77;5.17;;;;;;;;;;5094319;28;20550;-56
2023/12/09 05:52:21;;;;;;;5.50;5.00;;;;;;;;;;5095007;28;20442;-56
2023/12/09 05:54:47;;;;;;;5.30;4.80;;;;;;;;;;5094429;28;20470;-56
2023/12/09 05:57:13;;;;;;;4.77;4.27;;;;;;;;;;5094906;28;20438;-56
2023/12/09 05:59:40;;;;;;;4.90;4.50;;;;;;;;;;5094483;28;20571;-56
2023/12/09 06:02:06;;;;;;;5.03;4.53;;;;;;;;;;5094779;28;20452;-56
2023/12/09 06:04:33;;;;;;;6.00;5.20;;;;;;;;;;5094272;28;20470;-56
2023/12/09 06:07:00;;;;;;;6.23;5.17;;;;;;;;;;5094290;28;20478;-56
2023/12/09 06:09:27;;;;;;;5.10;4.43;;;;;;;;;;5094251;28;20541;-56
2023/12/09 06:11:53;;;;;;;5.13;4.60;;;;;;;;;;5094620;28;20437;-56
2023/12/09 06:14:19;;;;;;;7.87;5.33;;;;;;;;;;5094026;28;20462;-56
2023/12/09 06:16:46;;;;;;;5.40;4.90;;;;;;;;;;5094605;28;20438;-56
2023/12/09 06:19:13;;;;;;;4.60;4.13;;;;;;;;;;5093744;28;20946;-56
2023/12/09 06:21:39;;;;;;;5.80;4.03;;;;;;;;;;5093923;28;20442;-55
2023/12/09 06:24:07;;;;;;;4.50;4.10;;;;;;;;;;5094260;28;20462;-56
2023/12/09 06:26:34;;;;;;;5.70;5.10;;;;;;;;;;5073034;28;20458;-56
2023/12/09 06:29:00;;;;;;;4.67;4.23;;;;;;;;;;5073967;28;20454;-56
2023/12/09 06:31:26;;;;;;;5.63;3.90;;;;;;;;;;5073839;28;20482;-56
2023/12/09 06:33:53;;;;;;;5.17;4.67;;;;;;;;;;5073569;28;20441;-56
2023/12/09 06:36:19;;;;;;;6.07;4.17;;;;;;;;;;5073604;28;20998;-55
2023/12/09 06:38:45;;;;;;;5.37;4.30;;;;;;;;;;5073853;28;20435;-55
2023/12/09 06:41:13;;;;;;;4.47;3.60;;;;;;;;;;5073172;28;20481;-56
2023/12/09 06:43:40;;;;;;;4.87;4.37;;;;;;;;;;5073364;28;20439;-55
2023/12/09 06:46:06;;;;;;;4.90;4.43;;;;;;;;;;5072905;28;20988;-56
2023/12/09 06:48:32;;;;;;;4.57;3.53;;;;;;;;;;5073529;28;20501;-55
2023/12/09 06:50:59;;;;;;;3.80;3.50;;;;;;;;;;5073021;28;20466;-55
2023/12/09 06:53:25;;;;;;;6.03;3.87;;;;;;;;;;5073607;28;20443;-56
2023/12/09 06:55:51;;;;;;;5.00;4.50;;;;;;;;;;5072892;28;20470;-55
2023/12/09 06:58:19;;;;;;;4.93;4.43;;;;;;;;;;5069526;28;20471;-56
2023/12/09 07:00:47;;;;;;;4.13;3.80;;;;;;;;;;5073526;28;20442;-56
2023/12/09 07:03:13;;;;;;;4.33;3.93;;;;;;;;;;5072708;28;20471;-55
2023/12/09 07:05:40;;;;;;;5.27;4.77;;;;;;;;;;5073008;28;21043;-56
2023/12/09 07:08:06;;;;;;;4.50;3.97;;;;;;;;;;5072592;28;21006;-55
2023/12/09 07:10:32;;;;;;;4.23;3.73;;;;;;;;;;5074174;28;20788;-55
2023/12/09 07:12:59;;;;;;;4.97;3.90;;;;;;;;;;5073180;28;20471;-55
2023/12/09 07:15:27;;;;;;;4.83;4.33;;;;;;;;;;5073320;28;20459;-57
2023/12/09 07:17:53;;;;;;;6.13;4.40;;;;;;;;;;5072980;28;20467;-56
2023/12/09 07:20:20;;;;;;;3.70;3.40;;;;;;;;;;5073305;28;20454;-56
2023/12/09 07:22:46;;;;;;;4.27;3.87;;;;;;;;;;5072510;28;20490;-56
2023/12/09 07:25:12;;;;;;;4.23;3.83;;;;;;;;;;5073065;28;20465;-57
2023/12/09 07:27:39;;;;;;;4.50;4.13;;;;;;;;;;5072312;28;20489;-56
2023/12/09 07:30:06;;;;;;;4.90;4.40;;;;;;;;;;5073043;28;20439;-55
2023/12/09 07:32:34;;;;;;;4.70;4.20;;;;;;;;;;5072475;28;20525;-55
2023/12/09 07:35:00;;;;;;;4.20;3.80;;;;;;;;;;5072987;28;20551;-55
2023/12/09 07:37:26;;;;;;;4.33;3.90;;;;;;;;;;5072368;28;20477;-56
2023/12/09 07:39:53;;;;;;;4.30;3.90;;;;;;;;;;5076516;28;20525;-55
2023/12/09 07:42:19;;;;;;;7.37;4.33;;;;;;;;;;5076808;28;20475;-56
2023/12/09 07:44:46;;;;;;;5.00;3.27;;;;;;;;;;5077068;28;20462;-56
2023/12/09 07:47:12;;;;;;;6.20;3.70;;;;;;;;;;5076645;28;20481;-56
2023/12/09 07:49:41;;;;;;;5.23;4.67;;;;;;;;;;5077057;28;20435;-56
2023/12/09 07:52:08;;;;;;;5.07;4.13;;;;;;;;;;5076668;28;20490;-56
2023/12/09 07:54:34;;;;;;;4.03;3.70;;;;;;;;;;5076638;28;20455;-56
2023/12/09 07:57:01;;;;;;;4.50;4.10;;;;;;;;;;5076195;28;20462;-56
2023/12/09 07:59:27;;;;;;;6.87;3.60;;;;;;;;;;5076923;28;20446;-56
2023/12/09 08:01:54;;;;;;;3.23;2.93;;;;;;;;;;5076431;28;20472;-56
2023/12/09 08:04:20;;;;;;;5.30;3.63;;;;;;;;;;5076717;28;20463;-56
2023/12/09 08:06:48;;;;;;;4.20;3.80;;;;;;;;;;5076270;28;20439;-56
2023/12/09 08:09:15;;;;;;;4.20;3.30;;;;;;;;;;5076304;28;21095;-56
2023/12/09 08:11:41;;;;;;;7.63;3.13;;;;;;;;;;5076154;28;20453;-56
2023/12/09 08:14:08;;;;;;;4.73;4.00;;;;;;;;;;5076026;28;20542;-56
2023/12/09 08:16:34;;;;;;;4.93;4.43;;;;;;;;;;5075654;28;20819;-56
2023/12/09 08:19:01;;;;;;;4.47;3.50;;;;;;;;;;5076463;28;20443;-56
2023/12/09 08:21:28;;;;;;;4.07;3.67;;;;;;;;;;5076001;28;21010;-56
2023/12/09 08:23:55;;;;;;;4.00;3.60;;;;;;;;;;5075731;28;22144;-56
2023/12/09 08:26:22;;;;;;;4.20;3.67;;;;;;;;;;5076407;28;20525;-56
2023/12/09 08:28:49;;;;;;;5.00;3.13;;;;;;;;;;5075635;28;20475;-56
2023/12/09 08:31:15;;;;;;;4.27;3.87;;;;;;;;;;5075979;28;21035;-56
2023/12/09 08:33:41;;;;;;;4.97;3.57;;;;;;;;;;5075956;28;20498;-56
2023/12/09 08:36:08;;;;;;;4.30;3.77;;;;;;;;;;5076161;28;20439;-55
2023/12/09 08:38:35;;;;;;;5.53;3.67;;;;;;;;;;5075469;28;20475;-56
2023/12/09 08:41:02;;;;;;;4.87;4.07;;;;;;;;;;5076178;28;20445;-56
2023/12/09 08:43:29;;;;;;;3.53;3.23;;;;;;;;;;5075908;28;20484;-56
2023/12/09 08:45:55;;;;;;;4.03;3.60;;;;;;;;;;5075873;28;20459;-56
2023/12/09 08:48:22;;;;;;;4.43;3.50;;;;;;;;;;5074962;28;20851;-56
2023/12/09 08:50:48;;;;;;;3.80;2.90;;;;;;;;;;5075143;28;20457;-56
2023/12/09 08:53:14;;;;;;;4.87;3.80;;;;;;;;;;5075281;28;20558;-56
2023/12/09 08:55:41;;;;;;;8.20;4.13;;;;;;;;;;5075816;28;20465;-56
2023/12/09 08:58:08;;;;;;;4.70;4.20;;;;;;;;;;5075391;28;20467;-56
2023/12/09 09:00:35;;;;;;;5.23;3.83;;;;;;;;;;5075478;28;20933;-56
2023/12/09 09:03:03;;;;;;;4.47;3.70;;;;;;;;;;5075246;28;20848;-56
2023/12/09 09:05:29;;;;;;;5.73;4.23;;;;;;;;;;5075630;28;20462;-56
2023/12/09 09:07:56;;;;;;;8.07;3.97;;;;;;;;;;5075295;28;20588;-56
2023/12/09 09:10:22;;;;;;;3.53;3.10;;;;;;;;;;5075675;28;20438;-56
2023/12/09 09:12:49;;;;;;;6.33;3.70;;;;;;;;;;5074923;28;20478;-56
2023/12/09 09:15:17;;;;;;;4.73;3.50;;;;;;;;;;5075356;28;20459;-56
2023/12/09 09:17:44;;;;;;;5.10;4.60;;;;;;;;;;5075157;28;20477;-56
2023/12/09 09:20:10;;;;;;;6.90;4.07;;;;;;;;;;5075111;28;20431;-56
2023/12/09 09:22:37;;;;;;;7.70;3.27;;;;;;;;;;5074518;28;20471;-56
2023/12/09 09:25:04;;;;;;;4.47;3.57;;;;;;;;;;5075025;28;21034;-56
2023/12/09 09:27:30;;;;;;;4.27;3.50;;;;;;;;;;5074683;28;20482;-56
2023/12/09 09:29:57;;;;;;;3.80;3.40;;;;;;;;;;5075793;28;20478;-56
2023/12/09 09:32:25;;;;;;;3.67;3.37;;;;;;;;;;5074357;28;21004;-56
2023/12/09 09:34:51;;;;;;;3.83;3.40;;;;;;;;;;5075044;28;20494;-56
2023/12/09 09:37:18;;;;;;;7.27;3.70;;;;;;;;;;5075270;28;20543;-56
2023/12/09 09:39:44;;;;;;;3.47;3.13;;;;;;;;;;5075117;28;20437;-56
2023/12/09 09:42:14;;;;;;;3.90;3.60;;;;;;;;;;5074590;28;20498;-56
2023/12/09 09:44:44;;;;;;;4.20;3.30;;;;;;;;;;5074821;28;20552;-56
2023/12/09 09:47:11;;;;;;;3.90;3.50;;;;;;;;;;5073899;28;20475;-55
2023/12/09 09:49:39;;;;;;;3.73;3.20;;;;;;;;;;5074111;28;20578;-56
2023/12/09 09:52:09;;;;;;;3.90;3.50;;;;;;;;;;5073811;28;20463;-55
2023/12/09 09:54:37;;;;;;;5.47;3.20;;;;;;;;;;5074060;28;20463;-56
2023/12/09 09:57:04;;;;;;;3.43;3.13;;;;;;;;;;5073377;28;21068;-56
2023/12/09 09:59:30;;;;;;;3.83;2.87;;;;;;;;;;5073975;28;20533;-56
2023/12/09 10:01:57;;;;;;;3.17;2.77;;;;;;;;;;5072267;28;20864;-56
2023/12/09 10:04:23;;;;;;;4.83;3.37;;;;;;;;;;5073849;28;20546;-56
2023/12/09 10:06:51;;;;;;;4.10;3.27;;;;;;;;;;5073072;28;20814;-56
2023/12/09 10:09:18;;;;;;;5.03;3.03;;;;;;;;;;5073791;28;20482;-56
2023/12/09 10:11:44;;;;;;;5.40;3.20;;;;;;;;;;5073366;28;20447;-56
2023/12/09 10:14:10;;;;;;;3.37;2.50;;;;;;;;;;5073630;28;20465;-56
2023/12/09 10:16:38;;;;;;;3.07;2.77;;;;;;;;;;5073249;28;20438;-57
2023/12/09 10:19:04;;;;;;;3.97;2.50;;;;;;;;;;5073710;28;20458;-55
2023/12/09 10:21:30;;;;;;;4.40;3.20;;;;;;;;;;5073325;28;20447;-56
2023/12/09 10:23:58;;;;;;;3.20;2.93;;;;;;;;;;5072934;28;20498;-56
2023/12/09 10:26:24;;;;;;;6.30;2.80;;;;;;;;;;5073251;28;20876;-56
2023/12/09 10:28:51;;;;;;;4.37;2.77;;;;;;;;;;5072669;28;20489;-55
2023/12/09 10:31:18;;;;;;;3.70;2.80;;;;;;;;;;5073389;28;20443;-56
2023/12/09 10:33:44;;;;;;;4.20;3.50;;;;;;;;;;5072517;28;20504;-56
2023/12/09 10:36:11;;;;;;;3.33;3.03;;;;;;;;;;5072994;28;20445;-55
2023/12/09 10:38:41;;;;;;;2.80;2.60;;;;;;;;;;5073145;28;20477;-55
2023/12/09 10:41:09;;;;;;;2.80;2.57;;;;;;;;;;5073836;28;20457;-58
2023/12/09 10:43:35;;;;;;;3.87;2.93;;;;;;;;;;5072404;28;20478;-58
2023/12/09 10:46:03;;;;;;;4.07;2.50;;;;;;;;;;5073101;28;20438;-58
2023/12/09 10:48:30;;;;;;;5.23;3.43;;;;;;;;;;5072410;28;21007;-55
2023/12/09 10:50:57;;;;;;;4.03;2.93;;;;;;;;;;5073075;28;20500;-55
2023/12/09 10:53:23;;;;;;;4.47;3.03;;;;;;;;;;5072432;28;20549;-55
2023/12/09 10:55:49;;;;;;;3.13;2.83;;;;;;;;;;5072892;28;20459;-55
2023/12/09 10:58:17;;;;;;;3.93;3.17;;;;;;;;;;5072206;28;20474;-55
2023/12/09 11:00:44;;;;;;;3.27;2.97;;;;;;;;;;5072624;28;21019;-56
2023/12/09 11:03:11;;;;;;;7.33;3.07;;;;;;;;;;5072157;28;20532;-55
2023/12/09 11:05:41;;;;;;;3.93;2.77;;;;;;;;;;5072817;28;20459;-56
2023/12/09 11:08:09;;;;;;;4.33;3.37;;;;;;;;;;5072066;28;20999;-55
2023/12/09 11:10:35;;;;;;;3.00;2.70;;;;;;;;;;5072469;28;20445;-57
2023/12/09 11:13:03;;;;;;;3.33;2.50;;;;;;;;;;5072039;28;20475;-58
2023/12/09 11:15:32;;;;;;;3.53;2.70;;;;;;;;;;5072665;28;20531;-55
2023/12/09 11:18:07;;;;;;;3.50;3.03;;;;;;;;;;5072164;28;20508;-58
2023/12/09 11:20:33;;;;;;;4.37;2.60;;;;;;;;;;5072593;28;20437;-56
2023/12/09 11:23:01;;;;;;;3.53;2.90;;;;;;;;;;5072462;28;20470;-56
2023/12/09 11:25:29;;;;;;;3.00;2.77;;;;;;;;;;5072359;28;20550;-56
2023/12/09 11:27:58;;;;;;;4.10;2.50;;;;;;;;;;5072136;28;20562;-55
2023/12/09 11:30:33;;;;;;;2.53;2.33;;;;;;;;;;5072549;28;20913;-56
2023/12/09 11:33:00;;;;;;;3.37;2.83;;;;;;;;;;5072063;28;20557;-56
2023/12/09 11:35:26;;;;;;;3.40;2.70;;;;;;;;;;5072443;28;20549;-56
2023/12/09 11:37:54;;;;;;;3.00;2.43;;;;;;;;;;5072266;28;20470;-56
2023/12/09 11:40:21;;;;;;;2.53;2.33;;;;;;;;;;5072458;28;20443;-56
2023/12/09 11:42:47;;;;;;;2.23;2.03;;;;;;;;;;5071972;28;20477;-56
2023/12/09 11:45:14;;;;;;;3.87;2.37;;;;;;;;;;5072216;28;20829;-56
2023/12/09 11:47:42;;;;;;;4.43;3.13;;;;;;;;;;5072402;28;20470;-56
2023/12/09 11:50:09;;;;;;;3.13;2.40;;;;;;;;;;5072765;28;21000;-56
2023/12/09 11:52:35;;;;;;;3.53;2.27;;;;;;;;;;5072515;28;20473;-56
2023/12/09 11:55:03;;;;;;;3.00;2.17;;;;;;;;;;5072869;28;20471;-56
2023/12/09 11:57:30;;;;;;;2.70;2.50;;;;;;;;;;5072667;28;20467;-56
2023/12/09 11:59:56;;;;;;;4.23;2.60;;;;;;;;;;5072622;28;20442;-56
2023/12/09 12:02:23;;;;;;;3.63;2.40;;;;;;;;;;5072302;28;20474;-56
2023/12/09 12:04:50;;;;;;;3.10;2.80;;;;;;;;;;5072552;28;20847;-56
2023/12/09 12:07:17;;;;;;;2.40;2.20;;;;;;;;;;5072307;28;20477;-56
2023/12/09 12:09:43;;;;;;;2.90;2.57;;;;;;;;;;5072817;28;20493;-56
2023/12/09 12:12:10;;;;;;;2.80;2.30;;;;;;;;;;5072792;28;20546;-56
2023/12/09 12:14:36;;;;;;;2.90;2.70;;;;;;;;;;5072449;28;20541;-56
2023/12/09 12:17:03;;;;;;;4.40;3.07;;;;;;;;;;5072350;28;20481;-56
2023/12/09 12:19:29;;;;;;;2.47;2.07;;;;;;;;;;5072484;28;20905;-56
2023/12/09 12:21:57;;;;;;;2.17;1.97;;;;;;;;;;5072071;28;20537;-56
2023/12/09 12:24:23;;;;;;;2.63;2.00;;;;;;;;;;5072647;28;20567;-56
2023/12/09 12:26:50;;;;;;;2.30;2.10;;;;;;;;;;5075959;28;20470;-56
2023/12/09 12:29:20;;;;;;;3.43;2.33;;;;;;;;;;5076307;28;20514;-56
2023/12/09 12:31:48;;;;;;;2.47;2.37;;;;;;;;;;5075571;28;20948;-56
2023/12/09 12:34:15;;;;;;;3.00;2.60;;;;;;;;;;5076380;28;20495;-56
2023/12/09 12:36:41;;;;;;;5.80;2.30;;;;;;;;;;5075627;28;20956;-55
2023/12/09 12:39:09;;;;;;;3.30;2.40;;;;;;;;;;5076179;28;20454;-55
2023/12/09 12:41:36;;;;;;;2.63;1.90;;;;;;;;;;5075682;28;20527;-56
2023/12/09 12:44:02;;;;;;;2.47;2.10;;;;;;;;;;5076038;28;20491;-56
2023/12/09 12:46:29;;;;;;;2.60;1.93;;;;;;;;;;5075968;28;20443;-55
2023/12/09 12:48:55;;;;;;;2.50;2.00;;;;;;;;;;5075330;28;20566;-55
2023/12/09 12:51:22;;;;;;;2.10;2.00;;;;;;;;;;5075658;28;20984;-55
2023/12/09 12:53:48;;;;;;;4.80;2.53;;;;;;;;;;5075490;28;20495;-55
2023/12/09 12:56:16;;;;;;;2.60;2.30;;;;;;;;;;5075885;28;20525;-56
2023/12/09 12:58:42;;;;;;;2.40;2.17;;;;;;;;;;5075275;28;20549;-55
2023/12/09 13:01:08;;;;;;;2.57;2.30;;;;;;;;;;5075429;28;20900;-56
2023/12/09 13:03:35;;;;;;;2.40;2.00;;;;;;;;;;5075457;28;20498;-56
2023/12/09 13:06:01;;;;;;;2.17;1.97;;;;;;;;;;5075696;28;20525;-56
2023/12/09 13:08:28;;;;;;;3.10;2.30;;;;;;;;;;5074880;28;20892;-55
2023/12/09 13:10:54;;;;;;;2.50;2.00;;;;;;;;;;5075550;28;20620;-56
2023/12/09 13:13:22;;;;;;;3.47;2.60;;;;;;;;;;5074859;28;21052;-55
2023/12/09 13:15:48;;;;;;;2.33;1.63;;;;;;;;;;5075360;28;20549;-56
2023/12/09 13:18:15;;;;;;;2.67;2.20;;;;;;;;;;5074950;28;20499;-56
2023/12/09 13:20:45;;;;;;;2.10;1.90;;;;;;;;;;5074956;28;20873;-56
2023/12/09 13:23:11;;;;;;;1.87;1.70;;;;;;;;;;5074826;28;20462;-56
2023/12/09 13:25:38;;;;;;;3.90;1.87;;;;;;;;;;5075239;28;20497;-55
2023/12/09 13:28:04;;;;;;;2.57;2.10;;;;;;;;;;5074892;28;20981;-56
2023/12/09 13:30:32;;;;;;;3.23;2.30;;;;;;;;;;5075128;28;20569;-56
2023/12/09 13:33:00;;;;;;;2.30;2.10;;;;;;;;;;5074540;28;21012;-56
2023/12/09 13:35:26;;;;;;;3.93;2.20;;;;;;;;;;5074525;28;21057;-56
2023/12/09 13:37:53;;;;;;;2.83;2.17;;;;;;;;;;5074432;28;20513;-56
2023/12/09 13:40:19;;;;;;;2.30;2.20;;;;;;;;;;5074982;28;20443;-56
2023/12/09 13:42:46;;;;;;;2.97;2.10;;;;;;;;;;5074439;28;20553;-55
2023/12/09 13:45:14;;;;;;;2.20;2.00;;;;;;;;;;5074464;28;20972;-56
2023/12/09 13:47:42;;;;;;;1.70;1.60;;;;;;;;;;5074605;28;20471;-55
2023/12/09 13:50:09;;;;;;;2.67;1.60;;;;;;;;;;5074797;28;20486;-56
2023/12/09 13:52:36;;;;;;;3.13;2.23;;;;;;;;;;5074031;28;20554;-56
2023/12/09 13:55:03;;;;;;;2.30;2.10;;;;;;;;;;5074664;28;20463;-55
2023/12/09 13:57:30;;;;;;;2.33;2.13;;;;;;;;;;5073953;28;21011;-56
2023/12/09 13:59:56;;;;;;;2.20;2.00;;;;;;;;;;5074667;28;20471;-56
2023/12/09 14:02:23;;;;;;;1.90;1.80;;;;;;;;;;5073954;28;20896;-56
2023/12/09 14:04:51;;;;;;;2.40;2.20;;;;;;;;;;5074507;28;20459;-55
2023/12/09 14:07:17;;;;;;;2.27;2.07;;;;;;;;;;5074073;28;20553;-55
2023/12/09 14:09:44;;;;;;;2.30;1.97;;;;;;;;;;5074010;28;20574;-57
2023/12/09 14:12:10;;;;;;;2.07;1.73;;;;;;;;;;5073703;28;21014;-58
2023/12/09 14:14:37;;;;;;;1.70;1.60;;;;;;;;;;5074270;28;20466;-57
2023/12/09 14:17:05;;;;;;;2.20;1.80;;;;;;;;;;5073995;28;20459;-57
2023/12/09 14:19:31;;;;;;;2.90;2.07;;;;;;;;;;5074275;28;20508;-57
2023/12/09 14:21:59;;;;;;;2.13;1.93;;;;;;;;;;5073600;28;20542;-57
2023/12/09 14:24:25;;;;;;;3.37;2.20;;;;;;;;;;5073767;28;21039;-58
2023/12/09 14:26:52;;;;;;;3.83;2.23;;;;;;;;;;5073650;28;20652;-57
2023/12/09 14:29:18;;;;;;;2.17;1.97;;;;;;;;;;5073663;28;21004;-57
2023/12/09 14:31:44;;;;;;;2.20;2.00;;;;;;;;;;5073623;28;20523;-58
2023/12/09 14:34:11;;;;;;;1.90;1.80;;;;;;;;;;5073598;28;20502;-58
2023/12/09 14:36:38;;;;;;;3.53;2.37;;;;;;;;;;5073455;28;20434;-58
2023/12/09 14:39:09;;;;;;;1.67;1.57;;;;;;;;;;5073718;28;20471;-57
2023/12/09 14:41:35;;;;;;;2.60;1.93;;;;;;;;;;5073542;28;20454;-57